Alban, Wisconsin
Current Conditions -  °F | °C
As of 1:15 PM on Thursday 27 Nov 2014 (Local Time) from KSTE Reporting Station
Clear Clear  
Wind Chill: -18°   Ceiling: Unl
Heat Index: -11°   Visibility: 10mi
Dew Point: -16°   Wind: 9mph
Humidity: 67%   Direction: 330°NNW
Pressure: 30.35"   Gusts: NA
Location:  44.6794°N, 89.3392°W
Report Text: KSTE 271915Z AUTO 33008KT 10SM CLR M11/M16 A3035 RMK AO2 T11071158
Loading
Personal Weather Stations






























Interactive Weather Map New forecast layout! Learn more

10-Day Weather Forecast

Advertisements
Track Severe Weather on mobile